createdAt,value
2022-08-31T00:00:10.576Z,2.90
2022-08-31T00:02:57.178Z,3.40
2022-08-31T00:05:24.526Z,3.13
2022-08-31T00:07:52.635Z,3.45
2022-08-31T00:10:31.887Z,3.03
2022-08-31T00:13:00.713Z,3.58
2022-08-31T00:15:30.174Z,3.38
2022-08-31T00:17:57.610Z,3.20
2022-08-31T00:20:34.014Z,3.42
2022-08-31T00:23:04.132Z,3.20
2022-08-31T00:25:31.391Z,3.30
2022-08-31T00:27:58.349Z,3.58
2022-08-31T00:30:25.387Z,3.17
2022-08-31T00:32:52.321Z,3.28
2022-08-31T00:35:19.659Z,3.60
2022-08-31T00:37:48.094Z,3.15
2022-08-31T00:40:15.195Z,3.33
2022-08-31T00:42:42.347Z,3.10
2022-08-31T00:45:10.788Z,3.47
2022-08-31T00:47:37.763Z,3.25
2022-08-31T00:50:11.505Z,3.30
2022-08-31T00:52:43.022Z,3.35
2022-08-31T00:55:21.185Z,3.22
2022-08-31T00:57:53.120Z,3.35
2022-08-31T01:00:24.443Z,3.17
2022-08-31T01:02:51.693Z,3.33
2022-08-31T01:05:18.994Z,4.03
2022-08-31T01:07:48.280Z,3.40
2022-08-31T01:10:18.506Z,3.75
2022-08-31T01:12:47.662Z,3.92
2022-08-31T01:15:18.134Z,3.70
2022-08-31T01:17:48.350Z,3.70
2022-08-31T01:20:37.205Z,3.20
2022-08-31T01:23:13.233Z,3.15
2022-08-31T01:25:43.635Z,3.50
2022-08-31T01:28:11.854Z,3.60
2022-08-31T01:30:39.825Z,3.47
2022-08-31T01:33:07.032Z,3.70
2022-08-31T01:35:34.558Z,3.70
2022-08-31T01:38:02.701Z,3.03
2022-08-31T01:40:38.105Z,3.70
2022-08-31T01:43:05.086Z,4.30
2022-08-31T01:45:31.984Z,3.90
2022-08-31T01:47:59.993Z,3.42
2022-08-31T01:50:26.973Z,3.70
2022-08-31T01:52:53.849Z,3.58
2022-08-31T01:55:20.762Z,4.05
2022-08-31T01:57:47.668Z,3.50
2022-08-31T02:00:14.907Z,3.80
2022-08-31T02:02:42.060Z,3.90
2022-08-31T02:05:10.548Z,3.40
2022-08-31T02:07:37.471Z,4.00
2022-08-31T02:10:05.698Z,3.70
2022-08-31T02:12:32.658Z,3.40
2022-08-31T02:14:59.588Z,4.03
2022-08-31T02:17:26.562Z,3.60
2022-08-31T02:19:53.495Z,3.47
2022-08-31T02:22:20.467Z,4.10
2022-08-31T02:24:47.414Z,3.95
2022-08-31T02:27:14.326Z,3.47
2022-08-31T02:29:41.259Z,3.97
2022-08-31T02:32:08.315Z,3.70
2022-08-31T02:34:46.304Z,4.20
2022-08-31T02:37:13.248Z,3.95
2022-08-31T02:39:40.542Z,3.70
2022-08-31T02:42:07.799Z,3.63
2022-08-31T02:44:35.285Z,4.20
2022-08-31T02:47:02.214Z,4.15
2022-08-31T02:49:32.979Z,4.18
2022-08-31T02:51:59.992Z,4.40
2022-08-31T02:54:26.902Z,3.65
2022-08-31T02:56:53.790Z,4.28
2022-08-31T02:59:20.872Z,4.13
2022-08-31T03:01:48.315Z,4.18
2022-08-31T03:04:15.315Z,4.28
2022-08-31T03:06:42.336Z,4.13
2022-08-31T03:09:09.220Z,3.67
2022-08-31T03:11:36.128Z,3.78
2022-08-31T03:14:03.050Z,4.13
2022-08-31T03:16:29.933Z,3.85
2022-08-31T03:18:57.453Z,3.78
2022-08-31T03:21:24.364Z,3.83
2022-08-31T03:23:51.441Z,4.10
2022-08-31T03:26:18.382Z,4.20
2022-08-31T03:28:45.232Z,3.63
2022-08-31T03:31:12.159Z,3.50
2022-08-31T03:33:39.104Z,3.67
2022-08-31T03:36:07.234Z,4.28
2022-08-31T03:38:34.190Z,4.30
2022-08-31T03:41:02.002Z,3.72
2022-08-31T03:43:29.046Z,3.90
2022-08-31T03:45:55.995Z,4.03
2022-08-31T03:48:23.187Z,3.65
2022-08-31T03:50:50.188Z,3.70
2022-08-31T03:53:22.392Z,3.33
2022-08-31T03:55:49.997Z,3.92
2022-08-31T03:58:16.957Z,3.72
2022-08-31T04:00:44.430Z,3.72
2022-08-31T04:03:11.565Z,3.90
2022-08-31T04:05:44.334Z,3.88
2022-08-31T04:08:11.579Z,3.72
2022-08-31T04:10:40.799Z,3.80
2022-08-31T04:13:07.914Z,3.80
2022-08-31T04:15:37.014Z,3.70
2022-08-31T04:18:04.901Z,4.07
2022-08-31T04:20:36.603Z,3.78
2022-08-31T04:23:04.525Z,4.13
2022-08-31T04:25:31.746Z,4.18
2022-08-31T04:27:58.922Z,4.13
2022-08-31T04:30:25.873Z,3.58
2022-08-31T04:32:53.658Z,4.38
2022-08-31T04:35:20.763Z,3.97
2022-08-31T04:37:48.074Z,4.10
2022-08-31T04:40:25.640Z,3.97
2022-08-31T04:42:53.300Z,4.00
2022-08-31T04:45:20.252Z,3.80
2022-08-31T04:47:47.215Z,4.05
2022-08-31T04:50:16.598Z,4.10
2022-08-31T04:52:45.151Z,4.28
2022-08-31T04:55:30.562Z,4.10
2022-08-31T04:57:57.615Z,4.55
2022-08-31T05:00:24.871Z,4.22
2022-08-31T05:02:53.546Z,4.22
2022-08-31T05:05:20.543Z,4.95
2022-08-31T05:07:47.418Z,4.88
2022-08-31T05:10:15.056Z,4.60
2022-08-31T05:12:42.022Z,4.70
2022-08-31T05:15:09.182Z,4.82
2022-08-31T05:17:36.053Z,4.93
2022-08-31T05:20:05.402Z,4.38
2022-08-31T05:22:32.656Z,5.13
2022-08-31T05:24:59.773Z,5.22
2022-08-31T05:27:26.687Z,4.90
2022-08-31T05:29:53.566Z,4.53
2022-08-31T05:32:20.428Z,4.95
2022-08-31T05:34:47.315Z,5.10
2022-08-31T05:37:14.196Z,4.90
2022-08-31T05:39:41.092Z,4.47
2022-08-31T05:42:08.105Z,4.45
2022-08-31T05:44:36.352Z,4.97
2022-08-31T05:47:06.321Z,4.32
2022-08-31T05:49:34.058Z,5.43
2022-08-31T05:52:02.103Z,4.55
2022-08-31T05:54:29.459Z,4.40
2022-08-31T05:56:59.868Z,4.40
2022-08-31T05:59:29.844Z,4.65
2022-08-31T06:01:57.548Z,4.53
2022-08-31T06:04:24.862Z,4.70
2022-08-31T06:06:52.667Z,4.65
2022-08-31T06:09:19.982Z,4.60
2022-08-31T06:11:47.376Z,4.80
2022-08-31T06:14:14.863Z,4.55
2022-08-31T06:16:44.206Z,4.60
2022-08-31T06:19:15.284Z,7.57
2022-08-31T06:21:49.290Z,4.70
2022-08-31T06:26:57.368Z,4.63
2022-08-31T06:29:25.998Z,4.93
2022-08-31T06:31:53.404Z,4.28
2022-08-31T06:34:21.190Z,4.32
2022-08-31T06:36:48.498Z,4.43
2022-08-31T06:39:16.478Z,4.50
2022-08-31T06:41:43.729Z,4.22
2022-08-31T06:44:12.697Z,4.90
2022-08-31T06:46:40.586Z,4.10
2022-08-31T06:49:08.616Z,4.53
2022-08-31T06:51:38.159Z,4.40
2022-08-31T06:54:28.547Z,4.60
2022-08-31T06:57:00.049Z,4.32
2022-08-31T06:59:29.939Z,4.45
2022-08-31T07:01:59.048Z,3.97
2022-08-31T07:04:26.762Z,3.72
2022-08-31T07:06:54.553Z,3.83
2022-08-31T07:09:21.521Z,3.85
2022-08-31T07:11:52.231Z,3.70
2022-08-31T07:14:22.322Z,3.67
2022-08-31T07:16:50.736Z,3.58
2022-08-31T07:19:18.099Z,3.65
2022-08-31T07:21:50.773Z,5.15
2022-08-31T07:24:24.376Z,3.97
2022-08-31T07:27:00.773Z,4.25
2022-08-31T07:29:40.686Z,3.85
2022-08-31T07:32:12.055Z,3.88
2022-08-31T07:34:39.578Z,3.97
2022-08-31T07:37:25.983Z,4.00
2022-08-31T07:40:12.671Z,3.58
2022-08-31T07:42:44.600Z,4.18
2022-08-31T07:45:20.082Z,3.85
2022-08-31T07:47:51.558Z,4.22
2022-08-31T07:50:19.947Z,4.25
2022-08-31T07:52:54.075Z,4.22
2022-08-31T07:55:23.207Z,4.33
2022-08-31T07:57:51.916Z,4.30
2022-08-31T08:00:22.640Z,4.05
2022-08-31T08:02:52.956Z,3.83
2022-08-31T08:05:26.937Z,4.03
2022-08-31T08:07:58.726Z,3.80
2022-08-31T08:10:26.400Z,4.18
2022-08-31T08:13:04.132Z,3.83
2022-08-31T08:15:35.714Z,3.97
2022-08-31T08:18:04.714Z,3.80
2022-08-31T08:20:37.520Z,4.03
2022-08-31T08:23:28.350Z,3.97
2022-08-31T08:25:57.721Z,3.85
2022-08-31T08:28:45.975Z,4.28
2022-08-31T08:31:15.781Z,4.03
2022-08-31T08:33:44.006Z,3.88
2022-08-31T08:36:11.173Z,3.72
2022-08-31T08:38:43.744Z,3.70
2022-08-31T08:41:17.091Z,3.50
2022-08-31T08:43:57.316Z,3.55
2022-08-31T08:46:38.858Z,3.90
2022-08-31T08:49:18.135Z,3.53
2022-08-31T08:51:47.150Z,3.60
2022-08-31T08:54:21.189Z,4.00
2022-08-31T08:56:49.225Z,3.70
2022-08-31T08:59:19.954Z,3.33
2022-08-31T09:01:49.914Z,3.58
2022-08-31T09:04:30.927Z,3.03
2022-08-31T09:07:21.273Z,3.60
2022-08-31T09:10:01.946Z,3.35
2022-08-31T09:12:47.068Z,3.00
2022-08-31T09:17:59.278Z,2.80
2022-08-31T09:20:28.282Z,2.93
2022-08-31T09:22:57.362Z,4.03
2022-08-31T09:25:47.820Z,3.47
2022-08-31T09:28:16.424Z,3.00
2022-08-31T09:30:46.339Z,2.90
2022-08-31T09:33:18.164Z,3.40
2022-08-31T09:35:45.602Z,3.25
2022-08-31T09:38:28.150Z,3.28
2022-08-31T09:40:55.317Z,3.10
2022-08-31T09:43:38.279Z,4.15
2022-08-31T09:46:11.881Z,4.20
2022-08-31T09:48:39.987Z,3.85
2022-08-31T09:51:07.269Z,4.20
2022-08-31T09:53:59.523Z,4.45
2022-08-31T09:56:27.349Z,5.03
2022-08-31T09:59:01.733Z,4.30
2022-08-31T10:01:44.252Z,4.28
2022-08-31T10:04:16.138Z,4.68
2022-08-31T10:07:09.563Z,4.07
2022-08-31T10:09:47.056Z,4.13
2022-08-31T10:12:40.249Z,4.25
2022-08-31T10:15:20.288Z,4.35
2022-08-31T10:17:50.218Z,4.53
2022-08-31T10:20:37.370Z,4.78
2022-08-31T10:23:25.281Z,4.50
2022-08-31T10:25:57.577Z,4.82
2022-08-31T10:28:32.171Z,4.18
2022-08-31T10:31:07.632Z,4.43
2022-08-31T10:33:58.840Z,4.38
2022-08-31T10:36:33.204Z,4.25
2022-08-31T10:39:00.908Z,4.65
2022-08-31T10:41:35.587Z,4.43
2022-08-31T10:44:24.180Z,4.68
2022-08-31T10:46:59.054Z,4.40
2022-08-31T10:49:26.816Z,4.72
2022-08-31T10:52:02.411Z,4.10
2022-08-31T10:54:33.061Z,4.40
2022-08-31T10:57:05.529Z,4.75
2022-08-31T10:59:46.106Z,4.32
2022-08-31T11:02:25.128Z,4.57
2022-08-31T11:05:18.840Z,4.85
2022-08-31T11:07:55.901Z,3.65
2022-08-31T11:10:53.720Z,4.13
2022-08-31T11:13:49.454Z,4.07
2022-08-31T11:19:13.265Z,3.53
2022-08-31T11:21:51.235Z,3.38
2022-08-31T11:24:37.586Z,3.58
2022-08-31T11:27:19.237Z,3.80
2022-08-31T11:29:57.088Z,3.80
2022-08-31T11:32:40.953Z,3.45
2022-08-31T11:35:10.543Z,3.70
2022-08-31T11:37:52.963Z,3.30
2022-08-31T11:40:44.989Z,3.58
2022-08-31T11:43:34.058Z,3.75
2022-08-31T11:46:40.264Z,4.20
2022-08-31T11:49:07.929Z,3.60
2022-08-31T11:51:41.484Z,3.63
2022-08-31T11:54:38.201Z,3.35
2022-08-31T11:57:06.587Z,3.17
2022-08-31T11:59:38.369Z,3.38
2022-08-31T12:02:26.178Z,3.53
2022-08-31T12:04:53.641Z,3.80
2022-08-31T12:07:29.785Z,3.53
2022-08-31T12:10:08.488Z,3.05
2022-08-31T12:12:55.366Z,3.42
2022-08-31T12:15:47.918Z,3.38
2022-08-31T12:18:34.769Z,3.42
2022-08-31T12:21:51.996Z,3.00
2022-08-31T12:24:27.446Z,3.38
2022-08-31T12:27:18.309Z,3.00
2022-08-31T12:29:45.609Z,2.88
2022-08-31T12:33:08.176Z,2.85
2022-08-31T12:35:37.639Z,2.78
2022-08-31T12:38:10.811Z,2.45
2022-08-31T12:40:50.272Z,2.72
2022-08-31T12:43:22.427Z,2.70
2022-08-31T12:45:58.314Z,2.75
2022-08-31T12:48:33.870Z,3.30
2022-08-31T12:51:24.521Z,2.92
2022-08-31T12:54:33.814Z,2.60
2022-08-31T12:57:12.807Z,2.67
2022-08-31T13:00:02.023Z,2.80
2022-08-31T13:02:32.972Z,2.90
2022-08-31T13:05:00.389Z,3.00
2022-08-31T13:07:34.131Z,3.15
2022-08-31T13:10:11.853Z,3.20
2022-08-31T13:12:39.705Z,2.88
2022-08-31T13:15:20.695Z,3.05
2022-08-31T13:17:47.826Z,3.10
2022-08-31T13:20:19.409Z,2.83
2022-08-31T13:22:54.865Z,2.80
2022-08-31T13:25:36.561Z,2.97
2022-08-31T13:28:11.938Z,2.50
2022-08-31T13:30:41.589Z,2.80
2022-08-31T13:33:27.157Z,2.50
2022-08-31T13:36:15.244Z,2.42
2022-08-31T13:38:51.989Z,2.22
2022-08-31T13:41:36.088Z,2.20
2022-08-31T13:44:06.621Z,2.28
2022-08-31T13:46:43.144Z,2.67
2022-08-31T13:49:32.473Z,2.22
2022-08-31T13:52:00.212Z,1.80
2022-08-31T13:54:36.199Z,1.63
2022-08-31T13:57:28.430Z,1.75
2022-08-31T14:00:39.697Z,1.80
2022-08-31T14:03:45.111Z,1.95
2022-08-31T14:06:37.999Z,1.48
2022-08-31T14:09:17.685Z,1.58
2022-08-31T14:12:00.193Z,1.45
2022-08-31T14:14:40.249Z,1.88
2022-08-31T14:17:13.509Z,1.20
2022-08-31T14:19:40.877Z,1.30
2022-08-31T14:22:27.293Z,1.38
2022-08-31T14:25:00.463Z,1.38
2022-08-31T14:27:28.374Z,1.27
2022-08-31T14:29:55.289Z,1.38
2022-08-31T14:32:22.769Z,1.60
2022-08-31T14:34:51.294Z,1.48
2022-08-31T14:37:23.283Z,1.38
2022-08-31T14:39:53.864Z,1.50
2022-08-31T14:42:25.599Z,1.40
2022-08-31T14:45:00.506Z,1.27
2022-08-31T14:47:33.122Z,1.40
2022-08-31T14:50:05.967Z,1.48
2022-08-31T14:52:53.094Z,1.52
2022-08-31T14:55:21.765Z,1.80
2022-08-31T14:57:58.090Z,1.50
2022-08-31T15:00:26.304Z,1.33
2022-08-31T15:02:53.739Z,1.85
2022-08-31T15:05:24.033Z,1.85
2022-08-31T15:07:53.022Z,1.80
2022-08-31T15:10:22.933Z,2.10
2022-08-31T15:12:50.541Z,2.00
2022-08-31T15:15:20.536Z,2.08
2022-08-31T15:17:50.939Z,2.28
2022-08-31T15:20:20.123Z,2.40
2022-08-31T15:22:48.397Z,1.98
2022-08-31T15:25:17.258Z,2.38
2022-08-31T15:27:44.803Z,2.20
2022-08-31T15:30:14.763Z,2.40
2022-08-31T15:32:46.914Z,2.70
2022-08-31T15:35:22.474Z,2.80
2022-08-31T15:37:53.168Z,2.72
2022-08-31T15:40:21.684Z,2.60
2022-08-31T15:42:51.060Z,2.55
2022-08-31T15:45:18.324Z,2.67
2022-08-31T15:48:03.937Z,2.70
2022-08-31T15:50:32.596Z,2.30
2022-08-31T15:53:08.260Z,2.70
2022-08-31T15:55:38.961Z,2.42
2022-08-31T15:58:07.859Z,2.63
2022-08-31T16:00:36.211Z,2.80
2022-08-31T16:03:03.840Z,2.47
2022-08-31T16:05:35.842Z,2.53
2022-08-31T16:08:03.807Z,3.15
2022-08-31T16:10:31.145Z,3.28
2022-08-31T16:12:58.180Z,4.32
2022-08-31T16:15:26.201Z,3.10
2022-08-31T16:17:57.231Z,2.45
2022-08-31T16:20:24.197Z,2.40
2022-08-31T16:22:51.189Z,2.28
2022-08-31T16:25:20.439Z,2.50
2022-08-31T16:27:47.763Z,2.70
2022-08-31T16:30:15.978Z,2.47
2022-08-31T16:32:42.870Z,2.70
2022-08-31T16:35:10.627Z,3.03
2022-08-31T16:37:37.904Z,2.70
2022-08-31T16:40:05.938Z,2.95
2022-08-31T16:42:32.950Z,2.80
2022-08-31T16:45:02.357Z,2.75
2022-08-31T16:47:29.771Z,2.95
2022-08-31T16:49:58.413Z,2.50
2022-08-31T16:52:27.466Z,2.40
2022-08-31T16:54:59.108Z,2.45
2022-08-31T16:57:29.756Z,2.53
2022-08-31T16:59:58.080Z,2.55
2022-08-31T17:02:25.870Z,2.83
2022-08-31T17:04:54.664Z,2.58
2022-08-31T17:07:24.044Z,2.42
2022-08-31T17:09:55.067Z,2.58
2022-08-31T17:12:26.042Z,2.03
2022-08-31T17:14:53.419Z,2.15
2022-08-31T17:17:25.318Z,2.35
2022-08-31T17:19:54.105Z,2.30
2022-08-31T17:22:30.044Z,2.20
2022-08-31T17:25:04.699Z,2.50
2022-08-31T17:27:34.469Z,2.50
2022-08-31T17:30:05.364Z,2.30
2022-08-31T17:32:32.528Z,2.35
2022-08-31T17:34:59.841Z,2.40
2022-08-31T17:37:30.437Z,2.10
2022-08-31T17:39:59.074Z,2.00
2022-08-31T17:42:28.086Z,2.35
2022-08-31T17:44:56.609Z,2.20
2022-08-31T17:47:25.874Z,2.08
2022-08-31T17:49:54.161Z,2.20
2022-08-31T17:52:21.946Z,2.10
2022-08-31T17:54:51.172Z,2.13
2022-08-31T17:57:24.257Z,2.10
2022-08-31T17:59:51.525Z,2.30
2022-08-31T18:02:23.129Z,2.80
2022-08-31T18:04:52.308Z,3.55
2022-08-31T18:07:19.532Z,3.10
2022-08-31T18:09:47.030Z,2.80
2022-08-31T18:12:16.486Z,3.45
2022-08-31T18:14:43.836Z,2.97
2022-08-31T18:17:16.273Z,2.95
2022-08-31T18:19:44.839Z,2.97
2022-08-31T18:22:14.459Z,2.70
2022-08-31T18:24:42.748Z,3.10
2022-08-31T18:27:11.166Z,2.50
2022-08-31T18:29:39.184Z,2.17
2022-08-31T18:32:07.746Z,2.30
2022-08-31T18:34:39.114Z,2.30
2022-08-31T18:37:07.849Z,2.47
2022-08-31T18:39:54.854Z,2.10
2022-08-31T18:42:46.004Z,2.10
2022-08-31T18:45:16.008Z,2.45
2022-08-31T18:47:43.428Z,2.40
2022-08-31T18:50:10.649Z,2.55
2022-08-31T18:52:39.524Z,2.33
2022-08-31T18:55:07.615Z,2.70
2022-08-31T18:57:46.309Z,2.30
2022-08-31T19:00:16.554Z,2.25
2022-08-31T19:02:44.232Z,2.08
2022-08-31T19:05:12.806Z,2.60
2022-08-31T19:07:41.386Z,2.25
2022-08-31T19:10:13.746Z,2.40
2022-08-31T19:12:42.791Z,2.42
2022-08-31T19:15:11.963Z,2.50
2022-08-31T19:17:40.234Z,2.20
2022-08-31T19:20:10.160Z,2.67
2022-08-31T19:22:38.454Z,2.55
2022-08-31T19:25:08.023Z,2.80
2022-08-31T19:27:36.678Z,2.47
2022-08-31T19:30:06.117Z,2.70
2022-08-31T19:32:33.970Z,2.92
2022-08-31T19:35:00.832Z,3.05
2022-08-31T19:37:27.763Z,2.70
2022-08-31T19:39:54.706Z,3.00
2022-08-31T19:42:39.752Z,2.78
2022-08-31T19:45:24.207Z,2.70
2022-08-31T19:47:51.714Z,3.25
2022-08-31T19:50:19.673Z,3.03
2022-08-31T19:52:51.901Z,2.83
2022-08-31T19:55:18.840Z,2.70
2022-08-31T19:57:45.810Z,2.90
2022-08-31T20:00:13.437Z,2.90
2022-08-31T20:02:42.446Z,2.90
2022-08-31T20:05:09.962Z,2.80
2022-08-31T20:07:36.999Z,2.75
2022-08-31T20:10:04.701Z,3.50
2022-08-31T20:12:31.856Z,3.13
2022-08-31T20:14:58.795Z,2.72
2022-08-31T20:17:25.756Z,3.05
2022-08-31T20:19:54.914Z,3.50
2022-08-31T20:22:23.959Z,3.13
2022-08-31T20:24:55.713Z,3.08
2022-08-31T20:27:22.721Z,3.40
2022-08-31T20:29:50.131Z,3.05
2022-08-31T20:32:17.162Z,3.58
2022-08-31T20:34:44.788Z,3.17
2022-08-31T20:37:12.802Z,3.30
2022-08-31T20:39:42.102Z,3.10
2022-08-31T20:42:09.060Z,3.22
2022-08-31T20:44:37.763Z,3.20
2022-08-31T20:47:27.191Z,3.38
2022-08-31T20:50:02.792Z,3.17
2022-08-31T20:52:35.137Z,3.50
2022-08-31T20:55:04.194Z,3.42
2022-08-31T20:57:37.660Z,3.00
2022-08-31T21:00:05.888Z,3.10
2022-08-31T21:02:34.326Z,3.30
2022-08-31T21:05:34.111Z,3.00
2022-08-31T21:07:49.205Z,3.10
2022-08-31T21:10:16.273Z,3.42
2022-08-31T21:12:50.810Z,3.15
2022-08-31T21:15:22.452Z,3.47
2022-08-31T21:17:57.097Z,3.47
2022-08-31T21:20:25.592Z,3.47
2022-08-31T21:22:53.202Z,6.03
2022-08-31T21:25:20.350Z,3.03
2022-08-31T21:27:47.254Z,3.15
2022-08-31T21:30:14.258Z,3.20
2022-08-31T21:32:41.194Z,4.13
2022-08-31T21:35:09.810Z,3.28
2022-08-31T21:37:36.963Z,3.25
2022-08-31T21:40:05.764Z,3.10
2022-08-31T21:42:33.409Z,3.60
2022-08-31T21:45:00.286Z,3.20
2022-08-31T21:47:28.725Z,3.22
2022-08-31T21:49:55.618Z,3.70
2022-08-31T21:52:22.524Z,3.63
2022-08-31T21:54:49.429Z,3.92
2022-08-31T21:57:17.840Z,3.70
2022-08-31T21:59:44.742Z,4.13
2022-08-31T22:02:12.103Z,4.18
2022-08-31T22:04:42.390Z,3.88
2022-08-31T22:07:10.471Z,4.18
2022-08-31T22:09:37.927Z,4.00
2022-08-31T22:12:07.429Z,4.10
2022-08-31T22:14:37.292Z,4.40
2022-08-31T22:17:06.949Z,3.90
2022-08-31T22:19:37.762Z,4.03
2022-08-31T22:22:12.542Z,4.10
2022-08-31T22:24:40.325Z,4.80
2022-08-31T22:27:09.301Z,4.15
2022-08-31T22:29:38.298Z,3.97
2022-08-31T22:32:09.256Z,3.90
2022-08-31T22:34:37.450Z,4.60
2022-08-31T22:37:04.987Z,4.40
2022-08-31T22:39:32.035Z,4.25
2022-08-31T22:42:01.498Z,4.53
2022-08-31T22:44:34.232Z,4.70
2022-08-31T22:47:01.909Z,4.28
2022-08-31T22:49:29.065Z,4.35
2022-08-31T22:51:57.004Z,5.10
2022-08-31T22:54:24.926Z,4.35
2022-08-31T22:56:52.881Z,5.07
2022-08-31T22:59:27.123Z,5.80
2022-08-31T23:01:59.260Z,4.87
2022-08-31T23:04:27.695Z,4.63
2022-08-31T23:06:57.418Z,4.53
2022-08-31T23:09:27.875Z,4.93
2022-08-31T23:11:56.904Z,4.45
2022-08-31T23:14:24.412Z,5.10
2022-08-31T23:16:57.878Z,5.32
2022-08-31T23:19:32.974Z,7.03
2022-08-31T23:22:01.026Z,4.68
2022-08-31T23:24:48.008Z,5.28
2022-08-31T23:27:17.561Z,5.25
2022-08-31T23:29:47.929Z,5.50
2022-08-31T23:32:18.809Z,5.80
2022-08-31T23:34:49.246Z,5.70
2022-08-31T23:37:17.828Z,5.15
2022-08-31T23:39:46.372Z,5.90
2022-08-31T23:42:16.630Z,5.80
2022-08-31T23:44:45.809Z,5.70
2022-08-31T23:47:19.206Z,5.47
2022-08-31T23:49:48.437Z,5.68
2022-08-31T23:52:18.699Z,4.80
2022-08-31T23:54:46.333Z,5.32
2022-08-31T23:57:31.708Z,5.55
